createdAt,value
2023-01-26T06:43:54.950Z,100928.72
2023-01-26T06:48:57.030Z,100925.09
2023-01-26T06:53:59.140Z,100929.06
2023-01-26T06:59:01.225Z,100926.59
2023-01-26T07:04:03.552Z,100913.09
2023-01-26T07:09:05.917Z,100913.19
2023-01-26T07:14:08.177Z,100914.13
2023-01-26T07:19:10.302Z,100905.22
2023-01-26T07:24:12.668Z,100900.91
2023-01-26T07:29:14.809Z,100917.72
2023-01-26T07:34:16.935Z,100914.13
2023-01-26T07:39:19.021Z,100906.53
2023-01-26T07:44:21.122Z,100887.34
2023-01-26T07:49:23.345Z,100903.31
2023-01-26T07:54:25.436Z,100893.41
2023-01-26T07:59:27.512Z,100905.25
2023-01-26T08:04:29.708Z,100903.84
2023-01-26T08:09:31.814Z,100899.16
2023-01-26T08:14:46.551Z,100908.66
2023-01-26T08:19:49.289Z,100904.34
2023-01-26T08:24:51.421Z,100897.94
2023-01-26T08:29:53.586Z,100890.19
2023-01-26T08:34:55.842Z,100894.63
2023-01-26T08:39:57.883Z,100910.50
2023-01-26T08:45:00.120Z,100896.56
2023-01-26T08:50:02.203Z,100885.19
2023-01-26T08:55:04.735Z,100885.69
2023-01-26T09:00:07.938Z,100890.00
2023-01-26T09:05:10.321Z,100901.03
2023-01-26T09:10:12.996Z,100899.66
2023-01-26T09:15:15.475Z,100899.66
2023-01-26T09:20:18.215Z,100903.56
2023-01-26T09:25:20.290Z,100896.06
2023-01-26T09:30:24.928Z,100896.91
2023-01-26T09:35:28.363Z,100877.87
2023-01-26T09:40:56.203Z,100893.19
2023-01-26T09:46:06.608Z,100889.78
2023-01-26T09:51:23.383Z,100883.59
2023-01-26T09:56:28.603Z,100881.72
2023-01-26T10:02:06.563Z,100859.50
2023-01-26T10:07:17.518Z,100865.47
2023-01-26T10:12:20.221Z,100846.94
2023-01-26T10:17:31.068Z,100838.59
2023-01-26T10:22:45.917Z,100840.22
2023-01-26T10:27:48.119Z,100838.84
2023-01-26T10:32:53.636Z,100830.41
2023-01-26T10:37:56.340Z,100804.56
2023-01-26T10:42:59.936Z,100795.94
2023-01-26T10:48:06.963Z,100787.19
2023-01-26T10:53:16.934Z,100796.91
2023-01-26T10:58:49.687Z,100787.44
2023-01-26T11:04:04.670Z,100783.56
2023-01-26T11:09:29.416Z,100775.72
2023-01-26T11:14:32.940Z,100763.97
2023-01-26T11:19:46.927Z,100775.19
2023-01-26T11:25:16.060Z,100770.69
2023-01-26T11:30:47.453Z,100758.25
2023-01-26T11:36:22.016Z,100758.94
2023-01-26T11:42:07.701Z,100747.53
2023-01-26T11:47:39.958Z,100755.44
2023-01-26T11:52:56.481Z,100746.41
2023-01-26T11:58:19.586Z,100734.56
2023-01-26T12:03:30.967Z,100707.69
2023-01-26T12:08:41.047Z,100715.03
2023-01-26T12:13:46.364Z,100701.16
2023-01-26T12:19:10.837Z,100701.63
2023-01-26T12:25:04.820Z,100694.16
2023-01-26T12:30:36.909Z,100695.06
2023-01-26T12:35:59.927Z,100691.81
2023-01-26T12:41:14.774Z,100684.59
2023-01-26T12:46:18.053Z,100671.00
2023-01-26T12:51:33.354Z,100668.78
2023-01-26T12:56:43.064Z,100656.88
2023-01-26T13:01:45.351Z,100667.59
2023-01-26T13:07:02.524Z,100677.75
2023-01-26T13:12:04.954Z,100653.97
2023-01-26T13:17:15.858Z,100641.16
2023-01-26T13:22:24.046Z,100651.13
2023-01-26T13:27:46.046Z,100658.91
2023-01-26T13:32:48.068Z,100651.47
2023-01-26T13:37:50.800Z,100655.38
2023-01-26T13:43:26.644Z,100655.53
2023-01-26T13:48:48.193Z,100649.88
2023-01-26T13:54:06.568Z,100653.41
2023-01-26T13:59:23.051Z,100654.00
2023-01-26T14:04:26.526Z,100647.75
2023-01-26T14:09:31.718Z,100634.94
2023-01-26T14:14:37.360Z,100639.72
2023-01-26T14:19:41.596Z,100639.66
2023-01-26T14:24:49.333Z,100649.31
2023-01-26T14:29:51.462Z,100642.31
2023-01-26T14:34:58.541Z,100644.94
2023-01-26T14:40:24.460Z,100635.44
2023-01-26T14:45:32.005Z,100642.31
2023-01-26T14:50:35.796Z,100637.59
2023-01-26T14:55:37.971Z,100626.66
2023-01-26T15:00:40.189Z,100636.16
2023-01-26T15:05:42.494Z,100624.53
2023-01-26T15:11:17.728Z,100633.84
2023-01-26T15:16:23.057Z,100636.00
2023-01-26T15:21:32.776Z,100641.75
2023-01-26T15:26:36.424Z,100629.16
2023-01-26T15:31:41.863Z,100635.12
2023-01-26T15:36:47.536Z,100636.22
2023-01-26T15:42:04.744Z,100642.31
2023-01-26T15:47:12.079Z,100628.69
2023-01-26T15:52:15.365Z,100629.25
2023-01-26T15:57:18.220Z,100622.38
2023-01-26T16:02:21.408Z,100632.72
2023-01-26T16:07:24.755Z,100642.25
2023-01-26T16:12:31.689Z,100633.06
2023-01-26T16:17:34.429Z,100652.53
2023-01-26T16:22:36.528Z,100629.31
2023-01-26T16:27:38.612Z,100632.06
2023-01-26T16:32:42.411Z,100628.69
2023-01-26T16:37:45.078Z,100643.78
2023-01-26T16:42:50.142Z,100636.13
2023-01-26T16:47:57.655Z,100629.06
2023-01-26T16:53:07.541Z,100624.91
2023-01-26T16:58:09.661Z,100630.13
2023-01-26T17:03:13.170Z,100617.16
2023-01-26T17:08:15.299Z,100629.56
2023-01-26T17:13:17.406Z,100612.44
2023-01-26T17:18:19.527Z,100620.34
2023-01-26T17:23:21.631Z,100622.56
2023-01-26T17:28:23.776Z,100611.97
2023-01-26T17:33:25.829Z,100618.62
2023-01-26T17:38:28.100Z,100615.53
2023-01-26T17:43:30.384Z,100610.66
2023-01-26T17:48:34.361Z,100611.72
2023-01-26T17:53:40.849Z,100603.69
2023-01-26T17:58:46.762Z,100615.81
2023-01-26T18:03:49.196Z,100596.13
2023-01-26T18:08:51.341Z,100601.00
2023-01-26T18:13:54.491Z,100604.84
2023-01-26T18:18:58.576Z,100606.13
2023-01-26T18:24:03.544Z,100590.78
2023-01-26T18:29:06.752Z,100610.00
2023-01-26T18:34:11.025Z,100612.25
2023-01-26T18:39:14.456Z,100595.00
2023-01-26T18:44:18.228Z,100609.69
2023-01-26T18:49:20.671Z,100592.81
2023-01-26T18:54:22.860Z,100611.78
2023-01-26T18:59:24.949Z,100606.19
2023-01-26T19:04:27.020Z,100595.97
2023-01-26T19:09:35.880Z,100596.44
2023-01-26T19:14:38.241Z,100596.75
2023-01-26T19:19:41.937Z,100568.69
2023-01-26T19:24:44.100Z,100592.72
2023-01-26T19:29:47.197Z,100588.03
2023-01-26T19:34:49.277Z,100581.03
2023-01-26T19:39:51.395Z,100562.47
2023-01-26T19:44:53.498Z,100562.47
2023-01-26T19:49:55.577Z,100573.25
2023-01-26T19:54:57.675Z,100563.53
2023-01-26T19:59:59.853Z,100562.47
2023-01-26T20:05:02.024Z,100567.88
2023-01-26T20:10:06.295Z,100546.78
2023-01-26T20:15:09.285Z,100552.31
2023-01-26T20:20:13.370Z,100557.69
2023-01-26T20:25:16.021Z,100563.84
2023-01-26T20:30:18.774Z,100554.94
